X  Fermer Observations météorologiques des aéroports: METeorological Aerodrome Report.     LFLL Lyon Saint-Exupéry Airport
Température
5°C Température
3°C Point de rosée
87% Humidité



Vent
10 KM/H
6 MPH
3 M/S
5 KTS



350°
Nord
Conditions actuelles

Clair Clair
Pression 1016.92 (hPa) - 30.03 (inHg)
Visibilité 6.2 (miles) - 10 (km)
Temps actuel Metar LYON
Code de l'aéroport LFLL

Emplacement: Lyon Saint-Exupéry Airport
Distance: 67 (km)

Metar:
LFLL 080530Z 35005KT CAVOK 05/03 Q1017 NOSIG

Temps: 08-03-2021 06:30 CET